Terminal Aerodrome Forecast
Issued by NWS Wilmington, OH

Current Version | Previous Version | Text Only | Print | Product List | Glossary Off
Versions: 1 2 3 4 5 6 7 8 9 10 11 12 13 14 15 16 17 18 19 20 21

000
FTUS41 KILN 011500 AAA
TAFCMH
TAF AMD
KCMH 011510Z 0115/0212 VRB06KT 6SM HZ BKN010 OVC023
     FM011700 07005KT P6SM BKN025
     FM012000 08003KT P6SM SCT025
     FM012200 VRB03KT P6SM SKC
     FM021000 14004KT P6SM SCT250=

USA.gov is the U.S. government's official web portal to all federal, state and local government web resources and services.